sensor_id;sensor_type;location;lat;lon;timestamp;P1;durP1;ratioP1;P2;durP2;ratioP2
4096;SDS011;2062;50.694;7.246;2023-05-10T00:01:30;3.33;;;0.90;;
4096;SDS011;2062;50.694;7.246;2023-05-10T00:03:56;3.80;;;1.27;;
4096;SDS011;2062;50.694;7.246;2023-05-10T00:06:23;3.47;;;1.10;;
4096;SDS011;2062;50.694;7.246;2023-05-10T00:08:52;3.30;;;0.95;;
4096;SDS011;2062;50.694;7.246;2023-05-10T00:11:18;3.83;;;1.00;;
4096;SDS011;2062;50.694;7.246;2023-05-10T00:13:46;3.47;;;0.90;;
4096;SDS011;2062;50.694;7.246;2023-05-10T00:16:13;3.30;;;0.90;;
4096;SDS011;2062;50.694;7.246;2023-05-10T00:18:40;3.40;;;1.10;;
4096;SDS011;2062;50.694;7.246;2023-05-10T00:21:07;3.00;;;0.90;;
4096;SDS011;2062;50.694;7.246;2023-05-10T00:23:33;3.20;;;0.80;;
4096;SDS011;2062;50.694;7.246;2023-05-10T00:26:01;3.83;;;0.70;;
4096;SDS011;2062;50.694;7.246;2023-05-10T00:28:28;3.27;;;0.87;;
4096;SDS011;2062;50.694;7.246;2023-05-10T00:30:55;2.97;;;0.80;;
4096;SDS011;2062;50.694;7.246;2023-05-10T00:33:22;3.45;;;0.90;;
4096;SDS011;2062;50.694;7.246;2023-05-10T00:35:49;3.72;;;0.93;;
4096;SDS011;2062;50.694;7.246;2023-05-10T00:38:16;4.38;;;1.02;;
4096;SDS011;2062;50.694;7.246;2023-05-10T00:40:43;3.60;;;1.10;;
4096;SDS011;2062;50.694;7.246;2023-05-10T00:43:11;3.70;;;1.10;;
4096;SDS011;2062;50.694;7.246;2023-05-10T00:45:38;3.83;;;1.10;;
4096;SDS011;2062;50.694;7.246;2023-05-10T00:48:06;3.83;;;1.10;;
4096;SDS011;2062;50.694;7.246;2023-05-10T00:50:33;3.63;;;1.17;;
4096;SDS011;2062;50.694;7.246;2023-05-10T00:53:00;3.83;;;1.23;;
4096;SDS011;2062;50.694;7.246;2023-05-10T00:55:28;4.32;;;1.38;;
4096;SDS011;2062;50.694;7.246;2023-05-10T00:57:56;3.47;;;1.15;;
4096;SDS011;2062;50.694;7.246;2023-05-10T01:00:24;3.45;;;0.98;;
4096;SDS011;2062;50.694;7.246;2023-05-10T01:02:50;4.50;;;1.17;;
4096;SDS011;2062;50.694;7.246;2023-05-10T01:05:19;3.40;;;0.90;;
4096;SDS011;2062;50.694;7.246;2023-05-10T01:07:46;3.00;;;0.80;;
4096;SDS011;2062;50.694;7.246;2023-05-10T01:10:13;2.90;;;0.88;;
4096;SDS011;2062;50.694;7.246;2023-05-10T01:12:40;3.70;;;1.00;;
4096;SDS011;2062;50.694;7.246;2023-05-10T01:15:10;3.50;;;1.10;;
4096;SDS011;2062;50.694;7.246;2023-05-10T01:17:40;3.30;;;0.90;;
4096;SDS011;2062;50.694;7.246;2023-05-10T01:20:10;3.22;;;0.90;;
4096;SDS011;2062;50.694;7.246;2023-05-10T01:22:51;5.10;;;1.00;;
4096;SDS011;2062;50.694;7.246;2023-05-10T01:25:50;4.03;;;1.00;;
4096;SDS011;2062;50.694;7.246;2023-05-10T01:28:54;3.25;;;0.90;;
4096;SDS011;2062;50.694;7.246;2023-05-10T01:31:49;3.43;;;0.90;;
4096;SDS011;2062;50.694;7.246;2023-05-10T01:34:34;3.17;;;0.80;;
4096;SDS011;2062;50.694;7.246;2023-05-10T01:37:06;3.25;;;0.88;;
4096;SDS011;2062;50.694;7.246;2023-05-10T01:39:40;2.83;;;0.80;;
4096;SDS011;2062;50.694;7.246;2023-05-10T01:42:14;3.25;;;0.80;;
4096;SDS011;2062;50.694;7.246;2023-05-10T01:44:46;3.20;;;0.90;;
4096;SDS011;2062;50.694;7.246;2023-05-10T01:47:23;4.00;;;0.80;;
4096;SDS011;2062;50.694;7.246;2023-05-10T01:49:57;3.22;;;0.93;;
4096;SDS011;2062;50.694;7.246;2023-05-10T01:52:30;3.38;;;0.80;;
4096;SDS011;2062;50.694;7.246;2023-05-10T01:54:59;3.22;;;0.70;;
4096;SDS011;2062;50.694;7.246;2023-05-10T01:57:31;3.20;;;0.80;;
4096;SDS011;2062;50.694;7.246;2023-05-10T02:00:00;3.17;;;0.70;;
4096;SDS011;2062;50.694;7.246;2023-05-10T02:02:30;3.40;;;0.90;;
4096;SDS011;2062;50.694;7.246;2023-05-10T02:05:01;2.92;;;0.80;;
4096;SDS011;2062;50.694;7.246;2023-05-10T02:07:29;3.08;;;0.80;;
4096;SDS011;2062;50.694;7.246;2023-05-10T02:09:57;3.80;;;0.70;;
4096;SDS011;2062;50.694;7.246;2023-05-10T02:12:25;3.67;;;0.82;;
4096;SDS011;2062;50.694;7.246;2023-05-10T02:14:52;3.33;;;1.10;;
4096;SDS011;2062;50.694;7.246;2023-05-10T02:17:20;3.13;;;0.88;;
4096;SDS011;2062;50.694;7.246;2023-05-10T02:19:50;3.97;;;0.73;;
4096;SDS011;2062;50.694;7.246;2023-05-10T02:22:18;3.23;;;0.83;;
4096;SDS011;2062;50.694;7.246;2023-05-10T02:24:47;3.10;;;0.80;;
4096;SDS011;2062;50.694;7.246;2023-05-10T02:27:15;4.00;;;0.80;;
4096;SDS011;2062;50.694;7.246;2023-05-10T02:29:43;3.25;;;0.95;;
4096;SDS011;2062;50.694;7.246;2023-05-10T02:32:11;3.30;;;0.80;;
4096;SDS011;2062;50.694;7.246;2023-05-10T02:34:38;2.90;;;0.70;;
4096;SDS011;2062;50.694;7.246;2023-05-10T02:37:08;2.70;;;0.60;;
4096;SDS011;2062;50.694;7.246;2023-05-10T02:39:35;3.30;;;0.65;;
4096;SDS011;2062;50.694;7.246;2023-05-10T02:42:05;2.92;;;0.60;;
4096;SDS011;2062;50.694;7.246;2023-05-10T02:44:33;2.70;;;0.50;;
4096;SDS011;2062;50.694;7.246;2023-05-10T02:47:02;2.80;;;0.50;;
4096;SDS011;2062;50.694;7.246;2023-05-10T02:49:29;2.53;;;0.50;;
4096;SDS011;2062;50.694;7.246;2023-05-10T02:51:56;3.58;;;0.60;;
4096;SDS011;2062;50.694;7.246;2023-05-10T02:54:29;2.95;;;0.80;;
4096;SDS011;2062;50.694;7.246;2023-05-10T02:57:00;3.17;;;0.70;;
4096;SDS011;2062;50.694;7.246;2023-05-10T02:59:30;3.50;;;0.80;;
4096;SDS011;2062;50.694;7.246;2023-05-10T03:01:57;2.65;;;0.63;;
4096;SDS011;2062;50.694;7.246;2023-05-10T03:04:25;3.20;;;0.82;;
4096;SDS011;2062;50.694;7.246;2023-05-10T03:06:52;2.83;;;0.70;;
4096;SDS011;2062;50.694;7.246;2023-05-10T03:09:19;3.15;;;0.80;;
4096;SDS011;2062;50.694;7.246;2023-05-10T03:11:50;2.90;;;0.70;;
4096;SDS011;2062;50.694;7.246;2023-05-10T03:14:28;3.20;;;0.80;;
4096;SDS011;2062;50.694;7.246;2023-05-10T03:17:10;3.28;;;0.80;;
4096;SDS011;2062;50.694;7.246;2023-05-10T03:19:43;3.08;;;0.90;;
4096;SDS011;2062;50.694;7.246;2023-05-10T03:22:17;3.70;;;0.88;;
4096;SDS011;2062;50.694;7.246;2023-05-10T03:24:47;3.20;;;0.90;;
4096;SDS011;2062;50.694;7.246;2023-05-10T03:27:17;3.72;;;1.10;;
4096;SDS011;2062;50.694;7.246;2023-05-10T03:29:44;3.88;;;1.30;;
4096;SDS011;2062;50.694;7.246;2023-05-10T03:32:12;4.57;;;1.58;;
4096;SDS011;2062;50.694;7.246;2023-05-10T03:34:41;4.60;;;1.70;;
4096;SDS011;2062;50.694;7.246;2023-05-10T03:37:08;4.77;;;1.77;;
4096;SDS011;2062;50.694;7.246;2023-05-10T03:39:35;5.30;;;1.75;;
4096;SDS011;2062;50.694;7.246;2023-05-10T03:42:02;4.63;;;1.60;;
4096;SDS011;2062;50.694;7.246;2023-05-10T03:44:30;4.97;;;1.50;;
4096;SDS011;2062;50.694;7.246;2023-05-10T03:46:58;4.65;;;1.60;;
4096;SDS011;2062;50.694;7.246;2023-05-10T03:49:25;5.77;;;1.73;;
4096;SDS011;2062;50.694;7.246;2023-05-10T03:51:52;5.85;;;2.15;;
4096;SDS011;2062;50.694;7.246;2023-05-10T03:54:18;9.00;;;2.92;;
4096;SDS011;2062;50.694;7.246;2023-05-10T03:56:45;8.35;;;3.17;;
4096;SDS011;2062;50.694;7.246;2023-05-10T03:59:12;8.18;;;2.78;;
4096;SDS011;2062;50.694;7.246;2023-05-10T04:01:41;7.83;;;3.27;;
4096;SDS011;2062;50.694;7.246;2023-05-10T04:04:08;10.60;;;3.70;;
4096;SDS011;2062;50.694;7.246;2023-05-10T04:06:35;11.73;;;4.20;;
4096;SDS011;2062;50.694;7.246;2023-05-10T04:09:02;12.25;;;4.22;;
4096;SDS011;2062;50.694;7.246;2023-05-10T04:11:30;11.35;;;4.30;;
4096;SDS011;2062;50.694;7.246;2023-05-10T04:13:56;11.03;;;5.00;;
4096;SDS011;2062;50.694;7.246;2023-05-10T04:16:23;9.98;;;3.92;;
4096;SDS011;2062;50.694;7.246;2023-05-10T04:18:52;8.75;;;4.00;;
4096;SDS011;2062;50.694;7.246;2023-05-10T04:21:18;11.35;;;3.97;;
4096;SDS011;2062;50.694;7.246;2023-05-10T04:23:45;12.18;;;4.20;;
4096;SDS011;2062;50.694;7.246;2023-05-10T04:26:12;9.97;;;3.97;;
4096;SDS011;2062;50.694;7.246;2023-05-10T04:28:39;9.43;;;4.20;;
4096;SDS011;2062;50.694;7.246;2023-05-10T04:31:07;10.18;;;4.32;;
4096;SDS011;2062;50.694;7.246;2023-05-10T04:33:34;11.63;;;4.53;;
4096;SDS011;2062;50.694;7.246;2023-05-10T04:36:03;10.32;;;4.50;;
4096;SDS011;2062;50.694;7.246;2023-05-10T04:38:30;11.73;;;4.83;;
4096;SDS011;2062;50.694;7.246;2023-05-10T04:41:03;12.52;;;4.95;;
4096;SDS011;2062;50.694;7.246;2023-05-10T04:43:31;12.85;;;5.20;;
4096;SDS011;2062;50.694;7.246;2023-05-10T04:45:58;12.00;;;4.93;;
4096;SDS011;2062;50.694;7.246;2023-05-10T04:48:24;11.02;;;5.10;;
4096;SDS011;2062;50.694;7.246;2023-05-10T04:50:51;11.03;;;5.03;;
4096;SDS011;2062;50.694;7.246;2023-05-10T04:53:20;11.45;;;4.57;;
4096;SDS011;2062;50.694;7.246;2023-05-10T04:55:47;10.63;;;4.75;;
4096;SDS011;2062;50.694;7.246;2023-05-10T04:58:14;13.52;;;5.18;;
4096;SDS011;2062;50.694;7.246;2023-05-10T05:00:41;11.13;;;5.00;;
4096;SDS011;2062;50.694;7.246;2023-05-10T05:03:07;10.57;;;4.50;;
4096;SDS011;2062;50.694;7.246;2023-05-10T05:05:34;10.73;;;5.00;;
4096;SDS011;2062;50.694;7.246;2023-05-10T05:08:01;13.70;;;6.03;;
4096;SDS011;2062;50.694;7.246;2023-05-10T05:10:29;10.27;;;4.68;;
4096;SDS011;2062;50.694;7.246;2023-05-10T05:12:56;12.38;;;5.50;;
4096;SDS011;2062;50.694;7.246;2023-05-10T05:15:23;11.43;;;5.40;;
4096;SDS011;2062;50.694;7.246;2023-05-10T05:17:50;11.05;;;5.15;;
4096;SDS011;2062;50.694;7.246;2023-05-10T05:20:16;11.77;;;5.25;;
4096;SDS011;2062;50.694;7.246;2023-05-10T05:22:44;11.43;;;5.20;;
4096;SDS011;2062;50.694;7.246;2023-05-10T05:25:10;8.98;;;4.15;;
4096;SDS011;2062;50.694;7.246;2023-05-10T05:27:39;9.97;;;4.50;;
4096;SDS011;2062;50.694;7.246;2023-05-10T05:30:06;10.75;;;4.05;;
4096;SDS011;2062;50.694;7.246;2023-05-10T05:32:33;11.10;;;4.07;;
4096;SDS011;2062;50.694;7.246;2023-05-10T05:35:00;10.73;;;4.20;;
4096;SDS011;2062;50.694;7.246;2023-05-10T05:37:27;7.97;;;3.67;;
4096;SDS011;2062;50.694;7.246;2023-05-10T05:39:54;9.13;;;4.13;;
4096;SDS011;2062;50.694;7.246;2023-05-10T05:42:21;10.23;;;3.92;;
4096;SDS011;2062;50.694;7.246;2023-05-10T05:44:49;9.10;;;3.88;;
4096;SDS011;2062;50.694;7.246;2023-05-10T05:47:16;8.32;;;3.85;;
4096;SDS011;2062;50.694;7.246;2023-05-10T05:49:43;9.50;;;4.25;;
4096;SDS011;2062;50.694;7.246;2023-05-10T05:52:11;9.40;;;4.27;;
4096;SDS011;2062;50.694;7.246;2023-05-10T05:54:37;8.70;;;4.10;;
4096;SDS011;2062;50.694;7.246;2023-05-10T05:57:04;13.48;;;4.68;;
4096;SDS011;2062;50.694;7.246;2023-05-10T05:59:31;8.30;;;3.92;;
4096;SDS011;2062;50.694;7.246;2023-05-10T06:01:59;9.93;;;4.15;;
4096;SDS011;2062;50.694;7.246;2023-05-10T06:04:26;9.13;;;4.80;;
4096;SDS011;2062;50.694;7.246;2023-05-10T06:06:53;8.77;;;3.67;;
4096;SDS011;2062;50.694;7.246;2023-05-10T06:09:20;8.55;;;3.95;;
4096;SDS011;2062;50.694;7.246;2023-05-10T06:11:48;9.50;;;3.60;;
4096;SDS011;2062;50.694;7.246;2023-05-10T06:14:15;9.13;;;4.00;;
4096;SDS011;2062;50.694;7.246;2023-05-10T06:16:42;8.77;;;3.70;;
4096;SDS011;2062;50.694;7.246;2023-05-10T06:19:10;11.63;;;3.75;;
4096;SDS011;2062;50.694;7.246;2023-05-10T06:21:37;8.68;;;3.70;;
4096;SDS011;2062;50.694;7.246;2023-05-10T06:24:04;8.52;;;3.78;;
4096;SDS011;2062;50.694;7.246;2023-05-10T06:26:32;8.43;;;3.40;;
4096;SDS011;2062;50.694;7.246;2023-05-10T06:28:59;7.90;;;3.80;;
4096;SDS011;2062;50.694;7.246;2023-05-10T06:31:26;7.65;;;3.20;;
4096;SDS011;2062;50.694;7.246;2023-05-10T06:33:53;8.00;;;3.35;;
4096;SDS011;2062;50.694;7.246;2023-05-10T06:36:21;7.80;;;3.42;;
4096;SDS011;2062;50.694;7.246;2023-05-10T06:38:49;7.35;;;3.72;;
4096;SDS011;2062;50.694;7.246;2023-05-10T06:41:16;6.90;;;3.23;;
4096;SDS011;2062;50.694;7.246;2023-05-10T06:43:43;9.35;;;3.53;;
4096;SDS011;2062;50.694;7.246;2023-05-10T06:46:09;10.18;;;3.70;;
4096;SDS011;2062;50.694;7.246;2023-05-10T06:48:36;7.80;;;3.70;;
4096;SDS011;2062;50.694;7.246;2023-05-10T06:51:03;11.82;;;3.97;;
4096;SDS011;2062;50.694;7.246;2023-05-10T06:53:31;8.47;;;3.20;;
4096;SDS011;2062;50.694;7.246;2023-05-10T06:55:58;8.35;;;3.30;;
4096;SDS011;2062;50.694;7.246;2023-05-10T06:58:25;6.88;;;3.75;;
4096;SDS011;2062;50.694;7.246;2023-05-10T07:00:53;8.48;;;3.35;;
4096;SDS011;2062;50.694;7.246;2023-05-10T07:03:20;8.73;;;3.67;;
4096;SDS011;2062;50.694;7.246;2023-05-10T07:05:47;7.07;;;3.03;;
4096;SDS011;2062;50.694;7.246;2023-05-10T07:08:14;9.23;;;3.22;;
4096;SDS011;2062;50.694;7.246;2023-05-10T07:10:42;7.50;;;3.33;;
4096;SDS011;2062;50.694;7.246;2023-05-10T07:13:08;8.15;;;3.30;;
4096;SDS011;2062;50.694;7.246;2023-05-10T07:15:35;7.88;;;3.20;;
4096;SDS011;2062;50.694;7.246;2023-05-10T07:18:02;6.80;;;3.00;;
4096;SDS011;2062;50.694;7.246;2023-05-10T07:20:31;6.90;;;3.10;;
4096;SDS011;2062;50.694;7.246;2023-05-10T07:22:58;8.00;;;3.35;;
4096;SDS011;2062;50.694;7.246;2023-05-10T07:25:25;9.27;;;3.45;;
4096;SDS011;2062;50.694;7.246;2023-05-10T07:27:53;8.25;;;3.05;;
4096;SDS011;2062;50.694;7.246;2023-05-10T07:30:20;6.67;;;2.67;;
4096;SDS011;2062;50.694;7.246;2023-05-10T07:32:47;6.07;;;2.60;;
4096;SDS011;2062;50.694;7.246;2023-05-10T07:35:13;6.32;;;2.42;;
4096;SDS011;2062;50.694;7.246;2023-05-10T07:37:40;5.43;;;2.38;;
4096;SDS011;2062;50.694;7.246;2023-05-10T07:40:07;6.63;;;3.10;;
4096;SDS011;2062;50.694;7.246;2023-05-10T07:42:35;6.57;;;2.63;;
4096;SDS011;2062;50.694;7.246;2023-05-10T07:45:03;7.43;;;3.38;;
4096;SDS011;2062;50.694;7.246;2023-05-10T07:47:31;13.13;;;6.20;;
4096;SDS011;2062;50.694;7.246;2023-05-10T07:49:58;10.63;;;4.60;;
4096;SDS011;2062;50.694;7.246;2023-05-10T07:52:25;8.82;;;4.55;;
4096;SDS011;2062;50.694;7.246;2023-05-10T07:54:52;8.23;;;3.20;;
4096;SDS011;2062;50.694;7.246;2023-05-10T07:57:18;7.40;;;3.15;;
4096;SDS011;2062;50.694;7.246;2023-05-10T07:59:45;7.97;;;3.20;;
4096;SDS011;2062;50.694;7.246;2023-05-10T08:02:13;6.63;;;2.40;;
4096;SDS011;2062;50.694;7.246;2023-05-10T08:04:40;5.95;;;2.47;;
4096;SDS011;2062;50.694;7.246;2023-05-10T08:07:07;6.37;;;2.23;;
4096;SDS011;2062;50.694;7.246;2023-05-10T08:09:34;6.90;;;2.28;;
4096;SDS011;2062;50.694;7.246;2023-05-10T08:12:01;6.65;;;2.30;;
4096;SDS011;2062;50.694;7.246;2023-05-10T08:14:28;5.22;;;2.10;;
4096;SDS011;2062;50.694;7.246;2023-05-10T08:16:55;6.47;;;2.60;;
4096;SDS011;2062;50.694;7.246;2023-05-10T08:19:23;7.07;;;2.00;;
4096;SDS011;2062;50.694;7.246;2023-05-10T08:21:50;5.38;;;1.92;;
4096;SDS011;2062;50.694;7.246;2023-05-10T08:24:18;6.15;;;2.10;;
4096;SDS011;2062;50.694;7.246;2023-05-10T08:26:45;5.57;;;2.30;;
4096;SDS011;2062;50.694;7.246;2023-05-10T08:29:12;7.78;;;2.38;;
4096;SDS011;2062;50.694;7.246;2023-05-10T08:31:39;5.13;;;2.37;;
4096;SDS011;2062;50.694;7.246;2023-05-10T08:34:06;6.30;;;2.30;;
4096;SDS011;2062;50.694;7.246;2023-05-10T08:36:34;5.28;;;2.15;;
4096;SDS011;2062;50.694;7.246;2023-05-10T08:39:01;6.00;;;2.05;;
4096;SDS011;2062;50.694;7.246;2023-05-10T08:41:28;5.90;;;2.40;;
4096;SDS011;2062;50.694;7.246;2023-05-10T08:43:57;6.50;;;2.23;;
4096;SDS011;2062;50.694;7.246;2023-05-10T08:46:25;5.38;;;2.15;;
4096;SDS011;2062;50.694;7.246;2023-05-10T08:48:53;5.25;;;2.00;;
4096;SDS011;2062;50.694;7.246;2023-05-10T08:51:22;6.32;;;1.92;;
4096;SDS011;2062;50.694;7.246;2023-05-10T08:53:53;5.18;;;1.73;;
4096;SDS011;2062;50.694;7.246;2023-05-10T08:56:20;4.77;;;1.90;;
4096;SDS011;2062;50.694;7.246;2023-05-10T08:58:47;5.53;;;2.00;;
4096;SDS011;2062;50.694;7.246;2023-05-10T09:01:14;5.47;;;2.17;;
4096;SDS011;2062;50.694;7.246;2023-05-10T09:03:44;4.03;;;1.50;;
4096;SDS011;2062;50.694;7.246;2023-05-10T09:06:12;5.40;;;2.13;;
4096;SDS011;2062;50.694;7.246;2023-05-10T09:08:39;5.30;;;2.00;;
4096;SDS011;2062;50.694;7.246;2023-05-10T09:11:09;5.50;;;1.95;;
4096;SDS011;2062;50.694;7.246;2023-05-10T09:13:36;5.05;;;2.03;;
4096;SDS011;2062;50.694;7.246;2023-05-10T09:16:03;5.28;;;2.08;;
4096;SDS011;2062;50.694;7.246;2023-05-10T09:18:31;5.13;;;1.90;;
4096;SDS011;2062;50.694;7.246;2023-05-10T09:20:58;5.70;;;1.90;;
4096;SDS011;2062;50.694;7.246;2023-05-10T09:23:24;5.43;;;1.58;;
4096;SDS011;2062;50.694;7.246;2023-05-10T09:26:03;5.18;;;1.50;;
4096;SDS011;2062;50.694;7.246;2023-05-10T09:28:49;3.97;;;0.90;;
4096;SDS011;2062;50.694;7.246;2023-05-10T09:31:17;4.05;;;0.82;;
4096;SDS011;2062;50.694;7.246;2023-05-10T09:33:44;3.57;;;0.70;;
4096;SDS011;2062;50.694;7.246;2023-05-10T09:36:11;4.78;;;0.73;;
4096;SDS011;2062;50.694;7.246;2023-05-10T09:38:45;3.25;;;0.73;;
4096;SDS011;2062;50.694;7.246;2023-05-10T09:41:16;3.75;;;1.00;;
4096;SDS011;2062;50.694;7.246;2023-05-10T09:43:44;3.38;;;0.73;;
4096;SDS011;2062;50.694;7.246;2023-05-10T09:46:11;3.23;;;0.90;;
4096;SDS011;2062;50.694;7.246;2023-05-10T09:48:40;2.97;;;0.70;;
4096;SDS011;2062;50.694;7.246;2023-05-10T09:51:09;5.60;;;0.80;;
4096;SDS011;2062;50.694;7.246;2023-05-10T09:53:36;3.30;;;0.90;;
4096;SDS011;2062;50.694;7.246;2023-05-10T09:56:03;3.40;;;0.80;;
4096;SDS011;2062;50.694;7.246;2023-05-10T09:58:30;2.90;;;0.70;;
4096;SDS011;2062;50.694;7.246;2023-05-10T10:00:58;3.10;;;0.80;;
4096;SDS011;2062;50.694;7.246;2023-05-10T10:03:25;3.28;;;0.90;;
4096;SDS011;2062;50.694;7.246;2023-05-10T10:05:52;4.85;;;1.00;;
4096;SDS011;2062;50.694;7.246;2023-05-10T10:08:21;4.40;;;0.90;;
4096;SDS011;2062;50.694;7.246;2023-05-10T10:10:48;3.10;;;0.80;;
4096;SDS011;2062;50.694;7.246;2023-05-10T10:13:15;5.00;;;0.90;;
4096;SDS011;2062;50.694;7.246;2023-05-10T10:15:42;3.10;;;0.90;;
4096;SDS011;2062;50.694;7.246;2023-05-10T10:18:13;2.97;;;0.90;;
4096;SDS011;2062;50.694;7.246;2023-05-10T10:20:40;4.28;;;0.90;;
4096;SDS011;2062;50.694;7.246;2023-05-10T10:23:08;3.23;;;0.80;;
4096;SDS011;2062;50.694;7.246;2023-05-10T10:25:35;2.95;;;0.80;;
4096;SDS011;2062;50.694;7.246;2023-05-10T10:28:08;3.58;;;0.90;;
4096;SDS011;2062;50.694;7.246;2023-05-10T10:30:59;3.03;;;0.82;;
4096;SDS011;2062;50.694;7.246;2023-05-10T10:33:40;3.08;;;0.80;;
4096;SDS011;2062;50.694;7.246;2023-05-10T10:36:20;3.93;;;0.90;;
4096;SDS011;2062;50.694;7.246;2023-05-10T10:38:57;3.25;;;1.02;;
4096;SDS011;2062;50.694;7.246;2023-05-10T10:41:29;3.10;;;0.90;;
4096;SDS011;2062;50.694;7.246;2023-05-10T10:47:06;3.65;;;1.17;;
4096;SDS011;2062;50.694;7.246;2023-05-10T10:49:42;4.23;;;1.43;;
4096;SDS011;2062;50.694;7.246;2023-05-10T10:52:13;3.95;;;1.10;;
4096;SDS011;2062;50.694;7.246;2023-05-10T10:54:50;3.50;;;1.20;;
4096;SDS011;2062;50.694;7.246;2023-05-10T10:57:18;6.13;;;1.30;;
4096;SDS011;2062;50.694;7.246;2023-05-10T10:59:47;4.00;;;1.48;;
4096;SDS011;2062;50.694;7.246;2023-05-10T11:02:32;3.90;;;1.43;;
4096;SDS011;2062;50.694;7.246;2023-05-10T11:05:01;5.15;;;1.30;;
4096;SDS011;2062;50.694;7.246;2023-05-10T11:08:13;4.55;;;1.70;;
4096;SDS011;2062;50.694;7.246;2023-05-10T11:10:52;4.85;;;1.80;;
4096;SDS011;2062;50.694;7.246;2023-05-10T11:13:28;5.82;;;2.10;;
4096;SDS011;2062;50.694;7.246;2023-05-10T11:15:56;5.17;;;2.00;;
4096;SDS011;2062;50.694;7.246;2023-05-10T11:18:24;5.38;;;1.88;;
4096;SDS011;2062;50.694;7.246;2023-05-10T11:20:52;4.40;;;2.00;;
4096;SDS011;2062;50.694;7.246;2023-05-10T11:23:28;5.55;;;2.20;;
4096;SDS011;2062;50.694;7.246;2023-05-10T11:25:56;5.45;;;2.00;;
4096;SDS011;2062;50.694;7.246;2023-05-10T11:28:23;6.20;;;2.23;;
4096;SDS011;2062;50.694;7.246;2023-05-10T11:30:52;5.45;;;2.20;;
4096;SDS011;2062;50.694;7.246;2023-05-10T11:33:19;5.65;;;2.38;;
4096;SDS011;2062;50.694;7.246;2023-05-10T11:35:46;6.13;;;2.28;;
4096;SDS011;2062;50.694;7.246;2023-05-10T11:38:13;5.57;;;2.00;;
4096;SDS011;2062;50.694;7.246;2023-05-10T11:40:41;6.07;;;2.23;;
4096;SDS011;2062;50.694;7.246;2023-05-10T11:43:08;6.88;;;2.30;;
4096;SDS011;2062;50.694;7.246;2023-05-10T11:45:36;6.78;;;2.60;;
4096;SDS011;2062;50.694;7.246;2023-05-10T11:48:03;5.30;;;2.20;;
4096;SDS011;2062;50.694;7.246;2023-05-10T11:50:30;5.90;;;2.40;;
4096;SDS011;2062;50.694;7.246;2023-05-10T11:52:57;4.77;;;1.97;;
4096;SDS011;2062;50.694;7.246;2023-05-10T11:55:24;5.00;;;1.83;;
4096;SDS011;2062;50.694;7.246;2023-05-10T11:57:53;10.93;;;1.98;;
4096;SDS011;2062;50.694;7.246;2023-05-10T12:00:20;4.25;;;1.60;;
4096;SDS011;2062;50.694;7.246;2023-05-10T12:02:47;4.20;;;1.73;;
4096;SDS011;2062;50.694;7.246;2023-05-10T12:05:15;6.13;;;1.60;;
4096;SDS011;2062;50.694;7.246;2023-05-10T12:07:42;3.40;;;1.10;;
4096;SDS011;2062;50.694;7.246;2023-05-10T12:10:09;3.45;;;1.30;;
4096;SDS011;2062;50.694;7.246;2023-05-10T12:12:39;3.75;;;1.02;;
4096;SDS011;2062;50.694;7.246;2023-05-10T12:15:16;3.58;;;0.80;;
4096;SDS011;2062;50.694;7.246;2023-05-10T12:17:44;3.43;;;0.90;;
4096;SDS011;2062;50.694;7.246;2023-05-10T12:20:15;3.40;;;1.02;;
4096;SDS011;2062;50.694;7.246;2023-05-10T12:22:46;3.42;;;1.10;;
4096;SDS011;2062;50.694;7.246;2023-05-10T12:25:15;4.00;;;0.90;;
4096;SDS011;2062;50.694;7.246;2023-05-10T12:27:47;3.10;;;1.00;;
4096;SDS011;2062;50.694;7.246;2023-05-10T12:30:19;5.20;;;1.10;;
4096;SDS011;2062;50.694;7.246;2023-05-10T12:32:47;3.88;;;1.30;;
4096;SDS011;2062;50.694;7.246;2023-05-10T12:35:14;3.58;;;1.33;;
4096;SDS011;2062;50.694;7.246;2023-05-10T12:37:43;3.95;;;1.20;;
4096;SDS011;2062;50.694;7.246;2023-05-10T12:40:10;4.50;;;1.30;;
4096;SDS011;2062;50.694;7.246;2023-05-10T12:42:38;3.70;;;1.20;;
4096;SDS011;2062;50.694;7.246;2023-05-10T12:45:05;3.90;;;1.40;;
4096;SDS011;2062;50.694;7.246;2023-05-10T12:47:35;3.70;;;1.30;;
4096;SDS011;2062;50.694;7.246;2023-05-10T12:50:03;6.15;;;1.30;;
4096;SDS011;2062;50.694;7.246;2023-05-10T12:52:31;3.63;;;1.25;;
4096;SDS011;2062;50.694;7.246;2023-05-10T12:54:58;5.90;;;1.33;;
4096;SDS011;2062;50.694;7.246;2023-05-10T12:57:25;4.25;;;1.40;;
4096;SDS011;2062;50.694;7.246;2023-05-10T12:59:53;4.07;;;1.20;;
4096;SDS011;2062;50.694;7.246;2023-05-10T13:02:21;3.95;;;1.40;;
4096;SDS011;2062;50.694;7.246;2023-05-10T13:04:50;4.53;;;1.60;;
4096;SDS011;2062;50.694;7.246;2023-05-10T13:07:17;5.40;;;1.50;;
4096;SDS011;2062;50.694;7.246;2023-05-10T13:09:43;4.95;;;1.60;;
4096;SDS011;2062;50.694;7.246;2023-05-10T13:12:10;4.35;;;1.60;;
4096;SDS011;2062;50.694;7.246;2023-05-10T13:14:37;4.47;;;1.65;;
4096;SDS011;2062;50.694;7.246;2023-05-10T13:17:05;4.43;;;1.80;;
4096;SDS011;2062;50.694;7.246;2023-05-10T13:19:33;3.63;;;1.50;;
4096;SDS011;2062;50.694;7.246;2023-05-10T13:22:01;4.18;;;1.70;;
4096;SDS011;2062;50.694;7.246;2023-05-10T13:24:28;4.13;;;1.58;;
4096;SDS011;2062;50.694;7.246;2023-05-10T13:26:55;4.40;;;1.75;;
4096;SDS011;2062;50.694;7.246;2023-05-10T13:29:22;4.70;;;1.75;;
4096;SDS011;2062;50.694;7.246;2023-05-10T13:31:49;4.33;;;1.60;;
4096;SDS011;2062;50.694;7.246;2023-05-10T13:34:16;4.32;;;1.52;;
4096;SDS011;2062;50.694;7.246;2023-05-10T13:36:45;4.22;;;1.52;;
4096;SDS011;2062;50.694;7.246;2023-05-10T13:39:14;4.70;;;1.80;;
4096;SDS011;2062;50.694;7.246;2023-05-10T13:41:41;3.70;;;1.40;;
4096;SDS011;2062;50.694;7.246;2023-05-10T13:44:08;3.70;;;1.50;;
4096;SDS011;2062;50.694;7.246;2023-05-10T13:46:34;4.10;;;1.50;;
4096;SDS011;2062;50.694;7.246;2023-05-10T13:49:02;5.25;;;1.80;;
4096;SDS011;2062;50.694;7.246;2023-05-10T13:51:29;4.07;;;1.40;;
4096;SDS011;2062;50.694;7.246;2023-05-10T13:53:57;4.78;;;1.60;;
4096;SDS011;2062;50.694;7.246;2023-05-10T13:56:25;4.80;;;1.70;;
4096;SDS011;2062;50.694;7.246;2023-05-10T13:58:52;3.63;;;1.40;;
4096;SDS011;2062;50.694;7.246;2023-05-10T14:01:19;4.15;;;1.65;;
4096;SDS011;2062;50.694;7.246;2023-05-10T14:03:45;4.10;;;1.60;;
4096;SDS011;2062;50.694;7.246;2023-05-10T14:06:13;4.47;;;1.30;;
4096;SDS011;2062;50.694;7.246;2023-05-10T14:08:39;3.70;;;1.60;;
4096;SDS011;2062;50.694;7.246;2023-05-10T14:11:06;3.40;;;1.30;;
4096;SDS011;2062;50.694;7.246;2023-05-10T14:13:34;3.65;;;1.40;;
4096;SDS011;2062;50.694;7.246;2023-05-10T14:16:01;3.50;;;1.30;;
4096;SDS011;2062;50.694;7.246;2023-05-10T14:18:28;3.95;;;1.40;;
4096;SDS011;2062;50.694;7.246;2023-05-10T14:20:55;4.33;;;1.47;;
4096;SDS011;2062;50.694;7.246;2023-05-10T14:23:22;3.75;;;1.40;;
4096;SDS011;2062;50.694;7.246;2023-05-10T14:25:50;4.18;;;1.60;;
4096;SDS011;2062;50.694;7.246;2023-05-10T14:28:18;3.80;;;1.45;;
4096;SDS011;2062;50.694;7.246;2023-05-10T14:30:47;4.25;;;1.50;;
4096;SDS011;2062;50.694;7.246;2023-05-10T14:33:13;3.90;;;1.40;;
4096;SDS011;2062;50.694;7.246;2023-05-10T14:35:40;4.40;;;1.40;;
4096;SDS011;2062;50.694;7.246;2023-05-10T14:38:07;4.97;;;1.40;;
4096;SDS011;2062;50.694;7.246;2023-05-10T14:40:34;4.45;;;1.65;;
4096;SDS011;2062;50.694;7.246;2023-05-10T14:43:01;3.83;;;1.30;;
4096;SDS011;2062;50.694;7.246;2023-05-10T14:45:28;4.33;;;1.10;;
4096;SDS011;2062;50.694;7.246;2023-05-10T14:47:56;3.70;;;1.08;;
4096;SDS011;2062;50.694;7.246;2023-05-10T14:50:23;4.28;;;1.30;;
4096;SDS011;2062;50.694;7.246;2023-05-10T14:52:50;3.25;;;1.02;;
4096;SDS011;2062;50.694;7.246;2023-05-10T14:55:17;3.40;;;1.38;;
4096;SDS011;2062;50.694;7.246;2023-05-10T14:57:44;3.83;;;1.30;;
4096;SDS011;2062;50.694;7.246;2023-05-10T15:00:12;3.80;;;1.08;;
4096;SDS011;2062;50.694;7.246;2023-05-10T15:02:41;3.40;;;1.13;;
4096;SDS011;2062;50.694;7.246;2023-05-10T15:05:09;3.28;;;1.02;;
4096;SDS011;2062;50.694;7.246;2023-05-10T15:07:36;4.38;;;1.15;;
4096;SDS011;2062;50.694;7.246;2023-05-10T15:10:04;3.50;;;1.10;;
4096;SDS011;2062;50.694;7.246;2023-05-10T15:12:31;4.00;;;1.00;;
4096;SDS011;2062;50.694;7.246;2023-05-10T15:14:58;3.70;;;1.13;;
4096;SDS011;2062;50.694;7.246;2023-05-10T15:17:25;2.90;;;1.00;;
4096;SDS011;2062;50.694;7.246;2023-05-10T15:19:52;3.40;;;1.25;;
4096;SDS011;2062;50.694;7.246;2023-05-10T15:22:20;3.10;;;0.97;;
4096;SDS011;2062;50.694;7.246;2023-05-10T15:24:47;3.58;;;1.00;;
4096;SDS011;2062;50.694;7.246;2023-05-10T15:27:14;3.10;;;0.98;;